M I D A S
Marine Information and Data Acquisition System
Tripno 744 of the Zeeleeuw from 2004-07-05 06:15:59 to 2004-07-05 13:01:16
Back to CruiseResearch ActivitiesStationsMapUnderway DataData graphs

EquipmentUnitsComments
TimeDGPSUTC
LatitudeDGPSDM.mWGS84
LongitudeDGPSDM.mWGS84
SpeedMeteo Stationm/sRelative wind speed
DirectionMeteo StationdegRelative wind direction
TemperatureMeteo Stationdeg CelciusAir temperature
PressureMeteo StationPaAtmospheric pressure
HumidityMeteo Station%Relative humidity
Missing or incorrect values are displayed as -999
Metereological data collected by the RV Zeeleeuw from 2004-07-05 06:15:59 to 2004-07-05 13:01:16
Time Latitude Longitude Speed Direction Temperature Pressure Humidity
2004-07-05 06:17 51°13.632 2°55.984 3.9 185 15.5 101580 82
2004-07-05 06:18 51°13.66 2°55.872 3.7 173 15.8 101580 82
2004-07-05 06:19 51°13.669 2°55.779 2.7 228 16 101580 81
2004-07-05 06:20 51°13.674 2°55.786 3.3 267 15.9 101580 80
2004-07-05 06:21 51°13.669 2°55.771 4.8 35 15.9 101580 80
2004-07-05 06:22 51°13.74 2°55.706 6.1 3 15.9 101570 80
2004-07-05 06:23 51°13.845 2°55.619 5.4 346 15.8 101580 80
2004-07-05 06:24 51°13.966 2°55.542 6.7 344 15.7 101580 80
2004-07-05 06:25 51°14.092 2°55.463 9.3 340 15.7 101580 81
2004-07-05 06:26 51°14.227 2°55.33 9.5 354 15.7 101560 81
2004-07-05 06:27 51°14.35 2°55.079 10.3 3 15.7 101570 81
2004-07-05 06:28 51°14.465 2°54.781 11.5 2 15.6 101570 81
2004-07-05 06:29 51°14.49 2°54.49 9.7 23 15.6 101570 81
2004-07-05 06:30 51°14.462 2°54.335 6.8 31 15.6 101580 81
2004-07-05 06:31 51°14.441 2°54.232 6.8 32 15.5 101580 81
2004-07-05 06:32 51°14.423 2°54.149 6.5 28 15.4 101580 81
2004-07-05 06:33 51°14.383 2°53.997 9 36 15.4 101580 81
2004-07-05 06:34 51°14.274 2°53.727 11.3 31 15.4 101570 81
2004-07-05 06:35 51°14.132 2°53.377 11.3 29 15.4 101580 82
2004-07-05 06:36 51°13.999 2°53.061 11.2 27 15.5 101580 82
2004-07-05 06:37 51°13.87 2°52.741 11.5 29 15.5 101580 82
2004-07-05 06:38 51°13.736 2°52.426 11.5 28 15.4 101580 82
2004-07-05 06:39 51°13.603 2°52.08 10.9 24 15.5 101580 82
2004-07-05 06:40 51°13.482 2°51.753 12.1 26 15.5 101570 82
2004-07-05 06:41 51°13.365 2°51.436 11.6 26 15.5 101580 82
2004-07-05 06:42 51°13.233 2°51.081 12.1 24 15.5 101590 81
2004-07-05 06:43 51°13.109 2°50.748 10.8 23 15.5 101590 82
2004-07-05 06:44 51°12.987 2°50.419 11.7 22 15.5 101590 82
2004-07-05 06:45 51°12.867 2°50.094 12.2 21 15.6 101600 81
2004-07-05 06:46 51°12.744 2°49.758 11.6 28 15.5 101600 81
2004-07-05 06:47 51°12.623 2°49.429 11.9 24 15.6 101590 81
2004-07-05 06:48 51°12.503 2°49.098 12.3 28 15.6 101600 81
2004-07-05 06:49 51°12.383 2°48.768 12.5 24 15.6 101600 82
2004-07-05 06:50 51°12.264 2°48.443 12.8 22 15.7 101590 83
2004-07-05 06:51 51°12.141 2°48.108 12.4 25 15.6 101600 83
2004-07-05 06:52 51°12.026 2°47.773 12.4 24 15.6 101600 83
2004-07-05 06:53 51°11.921 2°47.43 13.3 21 15.6 101610 83
2004-07-05 06:54 51°11.815 2°47.088 13.3 24 15.6 101610 82
2004-07-05 06:55 51°11.709 2°46.745 13.6 26 15.6 101610 82
2004-07-05 06:56 51°11.604 2°46.401 13.1 25 15.6 101610 82
2004-07-05 06:57 51°11.501 2°46.063 13 26 15.6 101610 81
2004-07-05 06:58 51°11.393 2°45.714 13 26 15.6 101610 81
2004-07-05 06:59 51°11.296 2°45.378 13.3 25 15.6 101610 81
2004-07-05 07:00 51°11.196 2°45.017 13.9 25 15.6 101610 81
2004-07-05 07:01 51°11.1 2°44.665 13.6 26 15.6 101620 81
2004-07-05 07:02 51°11.006 2°44.32 13.2 25 15.6 101620 80
2004-07-05 07:03 51°10.91 2°43.962 13.2 23 15.6 101630 81
2004-07-05 07:04 51°10.815 2°43.617 12.4 25 15.6 101620 80
2004-07-05 07:05 51°10.72 2°43.259 12.2 26 15.5 101630 80
2004-07-05 07:06 51°10.628 2°42.913 13.1 22 15.6 101630 80
2004-07-05 07:07 51°10.534 2°42.555 12.4 22 15.6 101630 80
2004-07-05 07:08 51°10.444 2°42.207 12.7 19 15.6 101640 80
2004-07-05 07:09 51°10.35 2°41.855 12.4 25 15.6 101640 80
2004-07-05 07:10 51°10.258 2°41.51 12.4 22 15.6 101640 80
2004-07-05 07:11 51°10.164 2°41.144 13.6 24 15.6 101640 80
2004-07-05 07:12 51°10.058 2°40.745 13.2 24 15.6 101640 80
2004-07-05 07:13 51°9.971 2°40.402 12.3 25 15.6 101650 80
2004-07-05 07:14 51°9.886 2°40.032 13.1 20 15.5 101650 80
2004-07-05 07:15 51°9.814 2°39.672 12.4 18 15.5 101660 80
2004-07-05 07:16 51°9.741 2°39.313 12.8 20 15.5 101660 80
2004-07-05 07:17 51°9.665 2°38.94 12.9 20 15.5 101660 80
2004-07-05 07:18 51°9.584 2°38.598 8.6 48 15.5 101660 80
2004-07-05 07:19 51°9.481 2°38.588 2.4 215 15.5 101680 80
2004-07-05 07:20 51°9.483 2°38.759 4.2 287 15.5 101690 81
2004-07-05 07:21 51°9.53 2°39.015 4.1 298 15.5 101690 81
2004-07-05 07:22 51°9.576 2°39.302 3.5 289 15.6 101690 81
2004-07-05 07:23 51°9.652 2°39.6 3.1 293 15.7 101690 80
2004-07-05 07:24 51°9.673 2°39.873 3.1 283 15.7 101700 80
2004-07-05 07:25 51°9.721 2°40.117 4.7 267 15.7 101690 79
2004-07-05 07:26 51°9.716 2°40.272 2.1 195 15.7 101700 79
2004-07-05 07:27 51°9.683 2°40.341 4.4 162 15.7 101700 79
2004-07-05 07:28 51°9.651 2°40.381 5.1 162 15.7 101700 79
2004-07-05 07:29 51°9.624 2°40.406 5.6 174 15.5 101700 79
2004-07-05 07:30 51°9.599 2°40.425 5.1 174 15.4 101700 80
2004-07-05 07:31 51°9.58 2°40.442 3.2 186 15.5 101710 80
2004-07-05 07:32 51°9.569 2°40.469 4.4 235 15.7 101710 81
2004-07-05 07:33 51°9.608 2°40.521 7.9 310 15.7 101710 80
2004-07-05 07:34 51°9.727 2°40.439 10.9 352 15.7 101690 80
2004-07-05 07:35 51°9.798 2°40.154 12.9 19 15.7 101690 80
2004-07-05 07:36 51°9.75 2°39.788 12 20 15.6 101690 80
2004-07-05 07:37 51°9.692 2°39.418 12.5 25 15.5 101690 80
2004-07-05 07:38 51°9.628 2°38.992 12.6 26 15.5 101700 81
2004-07-05 07:39 51°9.57 2°38.616 12.8 26 15.5 101700 81
2004-07-05 07:40 51°9.51 2°38.24 12.7 21 15.5 101700 81
2004-07-05 07:41 51°9.451 2°37.863 12 24 15.5 101700 81
2004-07-05 07:42 51°9.391 2°37.484 12.7 26 15.4 101700 81
2004-07-05 07:43 51°9.334 2°37.124 11.6 25 15.4 101700 81
2004-07-05 07:44 51°9.266 2°36.692 11.9 27 15.4 101700 81
2004-07-05 07:45 51°9.205 2°36.312 12.5 26 15.3 101710 81
2004-07-05 07:46 51°9.18 2°35.927 13.4 17 15.4 101710 81
2004-07-05 07:47 51°9.186 2°35.526 12.9 18 15.3 101700 81
2004-07-05 07:48 51°9.237 2°35.161 12.7 11 15.4 101710 82
2004-07-05 07:49 51°9.304 2°34.782 12.8 16 15.4 101710 81
2004-07-05 07:50 51°9.41 2°34.446 13.3 4 15.3 101710 81
2004-07-05 07:51 51°9.605 2°34.338 10.9 329 15.3 101710 81
2004-07-05 07:52 51°9.789 2°34.491 9.6 322 15.3 101710 81
2004-07-05 07:53 51°9.963 2°34.66 8.4 324 15.3 101710 81
2004-07-05 07:54 51°10.146 2°34.841 9.9 324 15.3 101710 81
2004-07-05 07:55 51°10.325 2°35.02 9.9 326 15.3 101710 81
2004-07-05 07:56 51°10.497 2°35.2 10.2 326 15.3 101710 81
2004-07-05 07:57 51°10.671 2°35.367 9.6 320 15.3 101710 81
2004-07-05 07:58 51°10.846 2°35.557 10.5 332 15.4 101720 81
2004-07-05 07:59 51°11.016 2°35.733 9 323 15.3 101710 81
2004-07-05 08:00 51°11.195 2°35.913 9 323 15.3 101710 82
2004-07-05 08:01 51°11.358 2°36.117 9.4 329 15.3 101710 82
2004-07-05 08:02 51°11.513 2°36.321 8.2 330 15.3 101720 82
2004-07-05 08:03 51°11.673 2°36.542 8.4 318 15.3 101710 82
2004-07-05 08:04 51°11.83 2°36.768 8.7 324 15.3 101720 82
2004-07-05 08:05 51°11.984 2°36.985 8.5 325 15.3 101720 82
2004-07-05 08:06 51°12.144 2°37.208 8.8 328 15.4 101720 82
2004-07-05 08:07 51°12.302 2°37.428 8.9 322 15.3 101720 82
2004-07-05 08:08 51°12.457 2°37.647 8.7 323 15.4 101720 82
2004-07-05 08:09 51°12.611 2°37.867 9.5 324 15.4 101720 82
2004-07-05 08:10 51°12.767 2°38.089 8.6 323 15.3 101720 81
2004-07-05 08:11 51°12.932 2°38.316 9.1 327 15.3 101720 81
2004-07-05 08:12 51°13.114 2°38.473 10.7 327 15.3 101720 81
2004-07-05 08:13 51°13.304 2°38.631 10.2 330 15.3 101720 81
2004-07-05 08:14 51°13.492 2°38.784 10.4 326 15.3 101720 81
2004-07-05 08:15 51°13.688 2°38.897 10.2 334 15.3 101720 81
2004-07-05 08:16 51°13.9 2°38.927 11.5 346 15.3 101720 81
2004-07-05 08:17 51°14.109 2°38.835 12.1 357 15.4 101730 81
2004-07-05 08:18 51°14.233 2°38.524 11.9 19 15.4 101720 81
2004-07-05 08:19 51°14.217 2°38.146 11.5 32 15.3 101720 81
2004-07-05 08:20 51°14.163 2°37.761 11.9 31 15.3 101720 82
2004-07-05 08:21 51°14.108 2°37.364 11.2 28 15.2 101720 82
2004-07-05 08:22 51°14.056 2°36.971 11.1 31 15.2 101720 82
2004-07-05 08:23 51°14.006 2°36.576 11.9 31 15.2 101730 83
2004-07-05 08:24 51°13.958 2°36.195 12.5 34 15.1 101720 83
2004-07-05 08:25 51°13.914 2°35.785 13 31 15.1 101730 83
2004-07-05 08:26 51°13.922 2°35.388 12.9 21 15.1 101730 84
2004-07-05 08:27 51°14.058 2°35.123 13 346 15.1 101720 83
2004-07-05 08:28 51°14.278 2°35.145 11.5 338 15.1 101720 83
2004-07-05 08:29 51°14.489 2°35.209 11.4 341 15.1 101720 84
2004-07-05 08:30 51°14.693 2°35.28 11.2 335 15.1 101710 83
2004-07-05 08:31 51°14.904 2°35.358 12.9 340 15.2 101720 83
2004-07-05 08:32 51°15.11 2°35.435 12.1 338 15.2 101720 83
2004-07-05 08:33 51°15.316 2°35.514 12.2 339 15.2 101720 82
2004-07-05 08:34 51°15.521 2°35.593 12.3 334 15.2 101720 83
2004-07-05 08:35 51°15.711 2°35.665 10.6 335 15.2 101720 83
2004-07-05 08:36 51°15.795 2°35.627 8.1 10 15.3 101740 83
2004-07-05 08:37 51°15.795 2°35.57 6 51 15.3 101750 83
2004-07-05 08:38 51°15.775 2°35.54 6.1 89 15.1 101750 82
2004-07-05 08:39 51°15.746 2°35.502 4.5 121 15.1 101750 83
2004-07-05 08:40 51°15.709 2°35.466 5.5 137 15.1 101760 83
2004-07-05 08:41 51°15.669 2°35.44 5.3 136 15.1 101760 83
2004-07-05 08:42 51°15.631 2°35.417 5.5 136 15 101760 83
2004-07-05 08:43 51°15.594 2°35.395 5.7 134 14.9 101760 82
2004-07-05 08:44 51°15.557 2°35.369 5.8 131 14.9 101760 82
2004-07-05 08:45 51°15.52 2°35.343 5 131 14.9 101760 82
2004-07-05 08:46 51°15.485 2°35.315 6.1 125 14.9 101760 82
2004-07-05 08:47 51°15.451 2°35.285 6.3 123 14.9 101760 82
2004-07-05 08:48 51°15.418 2°35.253 6 120 14.9 101770 82
2004-07-05 08:49 51°15.387 2°35.221 6.2 114 15 101770 83
2004-07-05 08:50 51°15.355 2°35.186 5.1 119 14.9 101770 82
2004-07-05 08:51 51°15.324 2°35.149 5.7 105 15 101770 82
2004-07-05 08:52 51°15.292 2°35.109 5.4 103 14.9 101770 81
2004-07-05 08:53 51°15.211 2°35.084 3.3 151 14.9 101770 81
2004-07-05 08:54 51°15.168 2°35.193 5.3 287 15 101780 81
2004-07-05 08:55 51°15.262 2°35.304 10.3 327 15.1 101770 81
2004-07-05 08:56 51°15.448 2°35.406 10.9 338 15.1 101750 80
2004-07-05 08:57 51°15.639 2°35.51 12.3 334 15.2 101760 80
2004-07-05 08:58 51°15.833 2°35.592 12.2 335 15.2 101750 79
2004-07-05 08:59 51°16.026 2°35.672 11.1 331 15.2 101750 78
2004-07-05 09:00 51°16.218 2°35.75 11.8 336 15.2 101750 78
2004-07-05 09:01 51°16.412 2°35.816 12 332 15.2 101760 78
2004-07-05 09:02 51°16.607 2°35.875 12.1 333 15.2 101760 78
2004-07-05 09:03 51°16.801 2°35.936 12 332 15.2 101760 78
2004-07-05 09:04 51°16.872 2°36.143 4.1 284 15.2 101770 78
2004-07-05 09:05 51°16.795 2°36.246 4.2 141 15.2 101790 79
2004-07-05 09:06 51°16.743 2°36.217 6 125 15.1 101790 78
2004-07-05 09:07 51°16.701 2°36.177 6.4 119 15.1 101790 78
2004-07-05 09:09 51°16.658 2°36.132 6.1 127 15.1 101790 79
2004-07-05 09:10 51°16.62 2°36.089 6.3 122 15.1 101790 79
2004-07-05 09:11 51°16.585 2°36.048 6.1 116 15.2 101790 80
2004-07-05 09:12 51°16.549 2°36.007 6 111 15.1 101790 78
2004-07-05 09:13 51°16.514 2°35.967 6.5 116 15 101780 78
2004-07-05 09:14 51°16.478 2°35.924 5.7 116 15 101790 78
2004-07-05 09:15 51°16.443 2°35.882 6 100 15.1 101790 78
2004-07-05 09:16 51°16.409 2°35.841 6.4 107 15.1 101800 79
2004-07-05 09:17 51°16.375 2°35.802 6.6 104 15.1 101790 78
2004-07-05 09:18 51°16.34 2°35.761 6 103 15 101790 78
2004-07-05 09:19 51°16.302 2°35.716 7.6 109 15 101790 78
2004-07-05 09:20 51°16.267 2°35.675 7.2 106 14.9 101800 77
2004-07-05 09:21 51°16.232 2°35.634 6.6 106 14.9 101800 77
2004-07-05 09:22 51°16.197 2°35.59 6.2 107 15 101800 78
2004-07-05 09:23 51°16.162 2°35.547 6.3 99 15 101800 78
2004-07-05 09:24 51°16.128 2°35.504 5.9 91 14.9 101800 77
2004-07-05 09:25 51°16.093 2°35.46 6.5 96 15 101810 78
2004-07-05 09:26 51°16.058 2°35.415 5.9 95 15 101810 78
2004-07-05 09:27 51°15.992 2°35.366 3.6 156 15 101810 78
2004-07-05 09:28 51°15.941 2°35.406 5.7 261 15.1 101820 78
2004-07-05 09:29 51°15.989 2°35.48 8.5 324 15.1 101820 77
2004-07-05 09:30 51°16.138 2°35.633 10.2 327 15.2 101800 77
2004-07-05 09:31 51°16.316 2°35.742 10.6 330 15.2 101800 76
2004-07-05 09:32 51°16.499 2°35.855 10.4 336 15.3 101800 76
2004-07-05 09:33 51°16.686 2°35.973 11.1 328 15.3 101800 76
2004-07-05 09:34 51°16.865 2°36.087 10.6 331 15.3 101800 76
2004-07-05 09:35 51°17.043 2°36.204 10.9 330 15.3 101800 76
2004-07-05 09:36 51°17.222 2°36.322 11.3 335 15.3 101800 76
2004-07-05 09:37 51°17.404 2°36.433 10 330 15.3 101800 76
2004-07-05 09:38 51°17.586 2°36.541 10.7 325 15.3 101800 76
2004-07-05 09:39 51°17.769 2°36.653 11.2 325 15.3 101800 76
2004-07-05 09:40 51°17.951 2°36.762 10.5 331 15.3 101800 77
2004-07-05 09:41 51°18.134 2°36.873 11 334 15.3 101800 77
2004-07-05 09:42 51°18.317 2°36.98 10.9 335 15.2 101800 76
2004-07-05 09:43 51°18.512 2°36.948 12.7 351 15.3 101800 77
2004-07-05 09:44 51°18.69 2°36.746 13.1 360 15.3 101800 77
2004-07-05 09:45 51°18.854 2°36.497 13.6 354 15.3 101800 77
2004-07-05 09:46 51°19.016 2°36.246 12.5 359 15.3 101800 76
2004-07-05 09:47 51°19.173 2°35.986 13.2 357 15.3 101800 76
2004-07-05 09:48 51°19.33 2°35.725 13 357 15.3 101810 76
2004-07-05 09:49 51°19.482 2°35.456 12.9 358 15.3 101810 77
2004-07-05 09:50 51°19.635 2°35.187 12.1 360 15.3 101810 77
2004-07-05 09:51 51°19.788 2°34.914 12.7 355 15.3 101810 77
2004-07-05 09:52 51°19.937 2°34.648 13.5 358 15.2 101810 77
2004-07-05 09:53 51°20.094 2°34.364 12.8 359 15.2 101820 78
2004-07-05 09:54 51°20.246 2°34.092 12.1 359 15.2 101820 76
2004-07-05 09:55 51°20.395 2°33.819 12.6 355 15.2 101820 76
2004-07-05 09:56 51°20.544 2°33.544 11.8 357 15.2 101820 76
2004-07-05 09:57 51°20.693 2°33.266 11.9 353 15.3 101830 77
2004-07-05 09:58 51°20.841 2°32.99 11.6 359 15.3 101820 76
2004-07-05 09:59 51°20.985 2°32.733 12.1 356 15.2 101830 76
2004-07-05 10:00 51°21.173 2°32.511 11.3 349 15.2 101820 76
2004-07-05 10:01 51°21.365 2°32.427 10.3 345 15.3 101830 76
2004-07-05 10:02 51°21.59 2°32.361 10.7 341 15.3 101830 76
2004-07-05 10:03 51°21.793 2°32.289 11.6 338 15.3 101830 76
2004-07-05 10:04 51°21.992 2°32.218 11.8 340 15.3 101830 76
2004-07-05 10:05 51°22.196 2°32.146 11.9 340 15.3 101830 76
2004-07-05 10:06 51°22.413 2°32.062 12.1 340 15.3 101830 76
2004-07-05 10:07 51°22.544 2°31.936 8.6 8 15.3 101830 76
2004-07-05 10:08 51°22.537 2°31.808 6.3 56 15.2 101840 75
2004-07-05 10:09 51°22.512 2°31.752 5.9 92 15.1 101850 75
2004-07-05 10:10 51°22.476 2°31.694 5.4 92 15.1 101850 77
2004-07-05 10:11 51°22.404 2°31.653 5 150 15.1 101860 77
2004-07-05 10:12 51°22.348 2°31.68 2.6 197 15 101860 77
2004-07-05 10:13 51°22.306 2°31.749 2.2 181 15 101870 77
2004-07-05 10:14 51°22.224 2°31.763 5.3 109 15.1 101870 77
2004-07-05 10:15 51°22.154 2°31.705 5.9 102 15.1 101860 76
2004-07-05 10:16 51°22.118 2°31.65 5.6 88 15.1 101860 77
2004-07-05 10:17 51°22.091 2°31.603 6 94 15 101860 76
2004-07-05 10:18 51°22.071 2°31.567 5.5 109 15 101860 77
2004-07-05 10:19 51°22.05 2°31.527 5.6 119 15 101870 77
2004-07-05 10:20 51°22.026 2°31.484 4.9 118 14.9 101860 77
2004-07-05 10:21 51°22 2°31.44 5.2 115 15 101870 78
2004-07-05 10:22 51°21.974 2°31.394 6.2 109 15 101860 78
2004-07-05 10:23 51°21.947 2°31.349 5.7 109 14.9 101860 77
2004-07-05 10:24 51°21.919 2°31.303 5.9 103 14.8 101870 77
2004-07-05 10:25 51°21.89 2°31.254 5.8 104 14.8 101870 76
2004-07-05 10:26 51°21.887 2°31.229 6 129 14.8 101870 76
2004-07-05 10:27 51°21.883 2°31.194 5.6 134 14.7 101870 76
2004-07-05 10:28 51°21.872 2°31.152 5.4 143 14.8 101870 76
2004-07-05 10:29 51°21.856 2°31.109 5.4 133 14.8 101870 76
2004-07-05 10:30 51°21.837 2°31.067 5.6 139 14.9 101870 78
2004-07-05 10:31 51°21.815 2°31.029 5.3 140 14.8 101870 77
2004-07-05 10:32 51°21.78 2°30.991 4.4 140 14.8 101880 77
2004-07-05 10:33 51°21.736 2°31.014 3.6 252 14.8 101880 77
2004-07-05 10:34 51°21.782 2°31.043 7.6 317 14.8 101880 76
2004-07-05 10:35 51°21.959 2°31.044 11.8 331 14.9 101850 76
2004-07-05 10:36 51°22.163 2°31.048 10 332 15 101850 75
2004-07-05 10:37 51°22.367 2°31.06 11.3 331 15 101860 74
2004-07-05 10:38 51°22.569 2°31.075 11.1 331 15 101860 74
2004-07-05 10:39 51°22.767 2°31.093 11.2 329 15 101850 74
2004-07-05 10:40 51°22.968 2°31.132 10.6 327 15 101860 74
2004-07-05 10:41 51°23.155 2°31.209 10.6 321 15 101860 74
2004-07-05 10:42 51°23.341 2°31.313 8.9 327 15 101870 75
2004-07-05 10:43 51°23.532 2°31.385 10.4 325 15 101860 75
2004-07-05 10:44 51°23.727 2°31.339 12.3 343 15 101860 75
2004-07-05 10:45 51°23.903 2°31.121 12.3 354 15 101860 76
2004-07-05 10:46 51°24.016 2°30.795 12.5 360 15 101860 75
2004-07-05 10:47 51°24.117 2°30.453 12.6 359 15 101870 75
2004-07-05 10:48 51°24.22 2°30.113 11.8 1 15 101870 76
2004-07-05 10:49 51°24.326 2°29.764 12.3 3 15 101860 76
2004-07-05 10:50 51°24.423 2°29.435 12.1 359 15 101870 76
2004-07-05 10:51 51°24.528 2°29.085 11.9 351 15 101870 76
2004-07-05 10:52 51°24.699 2°28.91 10.6 327 15.1 101870 76
2004-07-05 10:53 51°24.874 2°29.003 8.1 319 15 101880 76
2004-07-05 10:54 51°25.042 2°29.136 6.7 41 15 101870 76
2004-07-05 10:55 51°25.18 2°29.33 7.6 323 15 101880 76
2004-07-05 10:56 51°25.32 2°29.534 7.2 318 14.9 101880 76
2004-07-05 10:57 51°25.459 2°29.734 7.1 320 14.9 101890 76
2004-07-05 10:58 51°25.6 2°29.934 6.7 322 14.9 101890 76
2004-07-05 10:59 51°25.74 2°30.139 7 316 14.9 101890 75
2004-07-05 11:00 51°25.833 2°30.394 4.2 318 14.9 101890 75
2004-07-05 11:01 51°25.863 2°30.698 3.6 336 14.9 101900 75
2004-07-05 11:02 51°25.8 2°31.002 2.6 36 15 101900 75
2004-07-05 11:03 51°25.659 2°31.275 2.7 47 15.1 101900 75
2004-07-05 11:04 51°25.53 2°31.559 2.4 32 15 101900 74
2004-07-05 11:05 51°25.411 2°31.839 2.1 17 15 101900 74
2004-07-05 11:06 51°25.294 2°32.149 2.5 15 15.2 101900 75
2004-07-05 11:07 51°25.183 2°32.451 2.6 24 15.3 101910 74
2004-07-05 11:08 51°25.061 2°32.74 2.5 32 15.4 101910 73
2004-07-05 11:09 51°24.967 2°33.04 2.3 354 15.4 101910 74
2004-07-05 11:10 51°24.871 2°33.34 2.4 23 15.5 101910 73
2004-07-05 11:11 51°24.773 2°33.643 2.5 27 15.6 101910 73
2004-07-05 11:12 51°24.674 2°33.948 1.9 14 15.6 101910 72
2004-07-05 11:13 51°24.586 2°34.257 2.1 21 15.6 101910 73
2004-07-05 11:14 51°24.504 2°34.571 3 360 15.7 101920 73
2004-07-05 11:15 51°24.44 2°34.892 2.7 354 15.9 101910 73
2004-07-05 11:16 51°24.381 2°35.212 2.1 32 15.9 101910 72
2004-07-05 11:17 51°24.3 2°35.531 2.4 28 15.8 101910 72
2004-07-05 11:18 51°24.197 2°35.836 3.2 10 15.8 101910 73
2004-07-05 11:19 51°24.091 2°36.095 1.5 106 15.8 101910 74
2004-07-05 11:20 51°23.98 2°36.178 5.7 80 15.7 101910 74
2004-07-05 11:21 51°23.885 2°36.092 7.4 32 15.4 101900 74
2004-07-05 11:22 51°23.852 2°35.96 6.8 352 15.2 101910 75
2004-07-05 11:23 51°23.87 2°35.84 7.5 339 15.2 101900 75
2004-07-05 11:24 51°23.93 2°35.709 7.9 324 15.2 101890 74
2004-07-05 11:25 51°23.941 2°35.589 5.4 8 15.2 101900 74
2004-07-05 11:26 51°23.919 2°35.537 5.2 30 15.3 101910 74
2004-07-05 11:27 51°23.891 2°35.497 4.8 64 15.1 101910 74
2004-07-05 11:28 51°23.864 2°35.463 4.6 92 15 101910 75
2004-07-05 11:29 51°23.833 2°35.43 4.9 107 14.9 101910 76
2004-07-05 11:30 51°23.801 2°35.402 4.7 116 14.8 101910 76
2004-07-05 11:31 51°23.769 2°35.378 4.7 127 14.9 101920 76
2004-07-05 11:32 51°23.735 2°35.355 5.1 124 14.9 101920 75
2004-07-05 11:33 51°23.701 2°35.331 4.9 123 14.9 101910 75
2004-07-05 11:34 51°23.667 2°35.307 4.9 123 15 101920 75
2004-07-05 11:35 51°23.633 2°35.282 4.8 123 14.9 101920 75
2004-07-05 11:36 51°23.598 2°35.255 4.4 111 15 101920 75
2004-07-05 11:37 51°23.566 2°35.23 4.7 123 15 101920 75
2004-07-05 11:38 51°23.53 2°35.201 4.8 110 15 101920 75
2004-07-05 11:39 51°23.495 2°35.174 4.4 121 15 101920 76
2004-07-05 11:40 51°23.427 2°35.184 3.4 99 15 101920 75
2004-07-05 11:41 51°23.249 2°35.306 5.8 56 15 101910 74
2004-07-05 11:42 51°23.014 2°35.433 6.3 62 14.9 101910 74
2004-07-05 11:43 51°22.768 2°35.481 6.9 56 14.8 101910 75
2004-07-05 11:44 51°22.526 2°35.532 7.1 56 14.8 101910 75
2004-07-05 11:45 51°22.285 2°35.589 6.7 50 14.7 101910 76
2004-07-05 11:46 51°22.046 2°35.653 7.1 54 14.7 101910 76
2004-07-05 11:47 51°21.809 2°35.714 7.2 55 14.7 101920 76
2004-07-05 11:48 51°21.571 2°35.77 7.3 51 14.7 101920 76
2004-07-05 11:49 51°21.333 2°35.829 6.9 51 14.7 101920 76
2004-07-05 11:50 51°21.096 2°35.886 7.5 57 14.7 101920 76
2004-07-05 11:51 51°20.879 2°36.006 4 56 14.7 101920 76
2004-07-05 11:52 51°20.711 2°36.245 4.8 56 14.8 101930 77
2004-07-05 11:53 51°20.549 2°36.503 3.3 51 14.8 101930 77
2004-07-05 11:54 51°20.458 2°36.844 1.7 5 14.8 101930 76
2004-07-05 11:55 51°20.446 2°37.184 2.1 338 14.9 101930 76
2004-07-05 11:56 51°20.434 2°37.533 2.5 350 15.1 101930 75
2004-07-05 11:57 51°20.418 2°37.871 2.2 1 15.2 101930 74
2004-07-05 11:58 51°20.399 2°38.215 3 333 15.3 101930 74
2004-07-05 11:59 51°20.382 2°38.559 2.7 350 15.5 101930 74
2004-07-05 12:00 51°20.364 2°38.904 3.4 345 15.5 101930 73
2004-07-05 12:01 51°20.354 2°39.25 2.8 343 15.7 101930 73
2004-07-05 12:02 51°20.36 2°39.596 2.5 319 15.7 101930 72
2004-07-05 12:03 51°20.368 2°39.941 2.7 330 15.7 101930 71
2004-07-05 12:04 51°20.381 2°40.288 3 339 15.8 101930 71
2004-07-05 12:05 51°20.388 2°40.635 3.5 325 15.9 101930 71
2004-07-05 12:06 51°20.394 2°40.985 3.1 321 15.9 101930 71
2004-07-05 12:07 51°20.403 2°41.333 3.8 318 15.9 101930 71
2004-07-05 12:08 51°20.412 2°41.68 4.1 331 15.9 101930 71
2004-07-05 12:09 51°20.421 2°42.03 3.5 320 15.8 101930 71
2004-07-05 12:10 51°20.429 2°42.373 3.1 319 15.8 101930 71
2004-07-05 12:11 51°20.435 2°42.729 2.8 317 15.7 101930 71
2004-07-05 12:12 51°20.439 2°43.079 2 329 15.7 101930 72
2004-07-05 12:13 51°20.408 2°43.426 2 350 15.8 101930 72
2004-07-05 12:14 51°20.37 2°43.777 2.2 327 15.9 101930 72
2004-07-05 12:15 51°20.302 2°44.113 2.1 31 16 101930 71
2004-07-05 12:16 51°20.221 2°44.448 2.3 29 16 101930 71
2004-07-05 12:17 51°20.142 2°44.784 1.9 31 15.9 101930 71
2004-07-05 12:18 51°20.059 2°45.119 2.3 32 15.9 101930 71
2004-07-05 12:19 51°19.976 2°45.453 2.8 35 15.8 101930 72
2004-07-05 12:20 51°19.896 2°45.789 2.8 24 15.7 101930 71
2004-07-05 12:21 51°19.814 2°46.124 2.1 8 15.7 101930 72
2004-07-05 12:22 51°19.73 2°46.461 2.1 1 15.8 101930 72
2004-07-05 12:23 51°19.648 2°46.797 2.8 8 15.8 101930 72
2004-07-05 12:24 51°19.553 2°47.126 2.2 30 15.9 101930 71
2004-07-05 12:25 51°19.434 2°47.438 2.1 21 15.8 101930 71
2004-07-05 12:26 51°19.316 2°47.749 2.1 24 15.8 101930 72
2004-07-05 12:27 51°19.201 2°48.062 1.4 16 15.9 101930 72
2004-07-05 12:28 51°19.088 2°48.373 2.4 31 16 101930 72
2004-07-05 12:29 51°18.971 2°48.697 1.6 41 16 101930 72
2004-07-05 12:30 51°18.861 2°49.019 1.8 16 16 101930 72
2004-07-05 12:31 51°18.739 2°49.336 2.6 32 16 101930 73
2004-07-05 12:32 51°18.612 2°49.649 2.6 48 15.9 101940 72
2004-07-05 12:33 51°18.486 2°49.962 2.4 42 15.9 101940 71
2004-07-05 12:34 51°18.358 2°50.274 2.5 42 15.8 101940 73
2004-07-05 12:35 51°18.231 2°50.584 2.8 36 15.7 101940 73
2004-07-05 12:36 51°18.103 2°50.892 2.1 43 15.7 101940 73
2004-07-05 12:37 51°17.961 2°51.185 2.9 47 15.6 101940 74
2004-07-05 12:38 51°17.813 2°51.465 2 28 15.6 101940 73
2004-07-05 12:39 51°17.653 2°51.745 3.6 65 15.6 101940 73
2004-07-05 12:40 51°17.475 2°51.989 3.5 63 15.5 101940 73
2004-07-05 12:41 51°17.266 2°52.145 4.6 65 15.4 101940 72
2004-07-05 12:42 51°17.051 2°52.281 4.6 58 15.4 101930 74
2004-07-05 12:43 51°16.836 2°52.423 4.5 57 15.3 101930 75
2004-07-05 12:44 51°16.622 2°52.569 5.3 60 15.3 101930 76
2004-07-05 12:45 51°16.41 2°52.722 4.8 64 15.2 101930 76
2004-07-05 12:46 51°16.198 2°52.877 4.7 69 15.2 101930 76
2004-07-05 12:47 51°15.99 2°53.041 4.1 65 15.2 101930 76
2004-07-05 12:48 51°15.788 2°53.215 3.9 54 15.1 101930 76
2004-07-05 12:49 51°15.584 2°53.392 4.1 69 15.1 101930 75
2004-07-05 12:50 51°15.384 2°53.578 3.6 61 15.1 101940 75
2004-07-05 12:51 51°15.199 2°53.754 3.7 84 15.2 101940 76
2004-07-05 12:52 51°15.092 2°53.828 3.5 133 15.2 101940 76
2004-07-05 12:53 51°15.039 2°53.899 5.1 151 15.3 101930 76
2004-07-05 12:54 51°14.978 2°53.963 2.8 123 15.3 101930 75
2004-07-05 12:55 51°14.844 2°54.152 1.2 74 15.4 101930 75
2004-07-05 12:56 51°14.692 2°54.43 0.8 68 15.6 101940 75
2004-07-05 12:57 51°14.562 2°54.703 0.5 7 15.7 101940 75
2004-07-05 12:58 51°14.422 2°54.972 0.2 59 15.9 101930 74
2004-07-05 12:59 51°14.296 2°55.2 1.5 144 16 101930 74
2004-07-05 13:00 51°14.192 2°55.352 3.2 117 16.1 101930 73